createdAt,value
2023-09-09T00:01:26.702Z,81.1
2023-09-09T00:07:17.026Z,81.9
2023-09-09T00:13:10.589Z,85
2023-09-09T00:19:03.013Z,85.6
2023-09-09T00:25:01.654Z,86.4
2023-09-09T00:30:54.140Z,83.3
2023-09-09T00:36:44.008Z,86.9
2023-09-09T00:42:36.592Z,85.7
2023-09-09T00:48:27.357Z,85.6
2023-09-09T00:54:18.393Z,86.3
2023-09-09T01:00:12.226Z,85.4
2023-09-09T01:06:04.688Z,86.3
2023-09-09T01:11:54.837Z,86.9
2023-09-09T01:17:46.346Z,85.4
2023-09-09T01:23:38.937Z,87.5
2023-09-09T01:29:32.804Z,85.1
2023-09-09T01:35:24.567Z,88.3
2023-09-09T01:41:16.328Z,88
2023-09-09T01:47:08.135Z,87.8
2023-09-09T01:52:58.863Z,87.3
2023-09-09T01:58:51.258Z,88.6
2023-09-09T02:04:43.261Z,89.8
2023-09-09T02:10:36.841Z,88.7
2023-09-09T02:16:28.810Z,88.4
2023-09-09T02:22:24.517Z,91
2023-09-09T02:28:19.410Z,87.9
2023-09-09T02:34:13.722Z,86.3
2023-09-09T02:40:05.438Z,92.1
2023-09-09T02:45:57.236Z,90.6
2023-09-09T02:51:50.072Z,91.3
2023-09-09T02:57:43.153Z,93.4
2023-09-09T03:03:36.742Z,93.2
2023-09-09T03:09:31.429Z,91.4
2023-09-09T03:15:25.267Z,92.2
2023-09-09T03:21:19.503Z,90.9
2023-09-09T03:27:11.525Z,91.5
2023-09-09T03:33:05.652Z,93.2
2023-09-09T03:39:01.117Z,91.4
2023-09-09T03:44:55.182Z,90.9
2023-09-09T03:50:46.454Z,90.6
2023-09-09T03:56:38.317Z,90.8
2023-09-09T04:02:32.734Z,91.5
2023-09-09T04:08:28.213Z,89.8
2023-09-09T04:14:21.215Z,94.1
2023-09-09T04:20:15.157Z,95.3
2023-09-09T04:26:08.922Z,95.2
2023-09-09T04:32:01.175Z,92.1
2023-09-09T04:37:50.931Z,93.4
2023-09-09T04:43:43.480Z,96.2
2023-09-09T04:49:44.305Z,96.8
2023-09-09T04:55:37.558Z,95.2
2023-09-09T05:01:31.444Z,96.7
2023-09-09T05:07:26.023Z,95.1
2023-09-09T05:13:21.904Z,98.2
2023-09-09T05:19:23.552Z,97
2023-09-09T05:25:16.966Z,97
2023-09-09T05:31:08.683Z,94.5
2023-09-09T05:37:01.513Z,96.9
2023-09-09T05:42:56.743Z,94.6
2023-09-09T05:48:51.525Z,97.4
2023-09-09T05:54:46.973Z,98.8
2023-09-09T06:00:40.268Z,99.5
2023-09-09T06:06:34.934Z,97.9
2023-09-09T06:12:26.676Z,98
2023-09-09T06:18:19.657Z,94.5
2023-09-09T06:24:12.188Z,93.6
2023-09-09T06:30:04.847Z,94
2023-09-09T06:35:59.650Z,95.7
2023-09-09T06:41:54.597Z,92.7
2023-09-09T06:47:50.155Z,91.7
2023-09-09T06:53:45.025Z,90.6
2023-09-09T06:59:42.986Z,91.6
2023-09-09T07:05:34.981Z,90.6
2023-09-09T07:11:29.453Z,88.6
2023-09-09T07:17:21.168Z,89.7
2023-09-09T07:23:19.259Z,88
2023-09-09T07:29:17.894Z,88
2023-09-09T07:35:11.499Z,87
2023-09-09T07:41:05.349Z,86.7
2023-09-09T07:47:00.908Z,86.4
2023-09-09T07:52:56.031Z,85.1
2023-09-09T07:58:48.417Z,84.4
2023-09-09T08:04:49.552Z,83
2023-09-09T08:10:44.827Z,82.9
2023-09-09T08:16:37.142Z,81.8
2023-09-09T08:22:29.908Z,81.6
2023-09-09T08:28:22.960Z,81.2
2023-09-09T08:34:17.513Z,80.7
2023-09-09T08:40:22.533Z,80.8
2023-09-09T08:47:39.962Z,80
2023-09-09T08:53:31.044Z,80.7
2023-09-09T08:59:25.226Z,79.6
2023-09-09T09:05:19.846Z,79.5
2023-09-09T09:11:16.311Z,77.7
2023-09-09T09:17:08.522Z,77.6
2023-09-09T09:23:04.752Z,77.1
2023-09-09T09:28:59.342Z,76.7
2023-09-09T09:34:51.919Z,76.2
2023-09-09T09:40:48.421Z,75.1
2023-09-09T09:46:43.563Z,74.5
2023-09-09T09:52:40.903Z,74.1
2023-09-09T09:58:33.671Z,74
2023-09-09T10:04:28.081Z,73.5
2023-09-09T10:10:27.718Z,71.9
2023-09-09T10:16:23.932Z,71.9
2023-09-09T10:22:27.228Z,70.4
2023-09-09T10:28:22.394Z,70.2
2023-09-09T10:34:17.130Z,68
2023-09-09T10:40:10.278Z,68.8
2023-09-09T10:46:05.874Z,67.2
2023-09-09T10:51:59.892Z,66.9
2023-09-09T10:57:56.538Z,66.3
2023-09-09T11:03:51.882Z,64.4
2023-09-09T11:09:47.996Z,64.1
2023-09-09T11:15:41.036Z,64.7
2023-09-09T11:21:36.105Z,64.5
2023-09-09T11:27:30.553Z,65.7
2023-09-09T11:33:26.143Z,63.3
2023-09-09T11:39:22.439Z,62.6
2023-09-09T11:45:16.019Z,62.4
2023-09-09T11:51:09.101Z,61.3
2023-09-09T11:57:04.007Z,61.3
2023-09-09T12:02:57.865Z,60.7
2023-09-09T12:08:53.057Z,60.4
2023-09-09T12:14:46.670Z,61
2023-09-09T12:20:42.198Z,59.3
2023-09-09T12:26:34.895Z,60.1
2023-09-09T12:32:30.959Z,57.9
2023-09-09T12:38:26.667Z,59
2023-09-09T12:44:22.130Z,58.3
2023-09-09T12:50:17.357Z,56.4
2023-09-09T12:56:10.081Z,57.2
2023-09-09T13:02:05.755Z,57
2023-09-09T13:08:01.352Z,55.7
2023-09-09T13:14:24.469Z,56.2
2023-09-09T13:20:20.207Z,55.4
2023-09-09T13:26:15.164Z,55.6
2023-09-09T13:32:07.731Z,54.1
2023-09-09T13:38:00.584Z,54.1
2023-09-09T13:43:57.112Z,53.2
2023-09-09T13:49:50.815Z,54.4
2023-09-09T13:55:46.183Z,53.3
2023-09-09T14:01:39.019Z,54.6
2023-09-09T14:07:33.696Z,53.6
2023-09-09T14:13:27.948Z,52
2023-09-09T14:19:21.478Z,52.1
2023-09-09T14:25:15.804Z,51.8
2023-09-09T14:31:10.578Z,52.6
2023-09-09T14:37:03.361Z,51.7
2023-09-09T14:42:57.854Z,51.5
2023-09-09T14:48:52.201Z,51.3
2023-09-09T14:54:44.210Z,51.9
2023-09-09T15:00:39.113Z,51
2023-09-09T15:06:34.180Z,50.7
2023-09-09T15:12:28.774Z,50
2023-09-09T15:18:20.702Z,50.7
2023-09-09T15:24:13.874Z,49.6
2023-09-09T15:30:06.654Z,49
2023-09-09T15:35:59.626Z,49.4
2023-09-09T15:41:54.088Z,48.6
2023-09-09T15:47:48.250Z,48.6
2023-09-09T15:53:40.173Z,49.1
2023-09-09T15:59:32.525Z,49.1
2023-09-09T16:05:27.385Z,48.4
2023-09-09T16:11:19.384Z,49.3
2023-09-09T16:17:14.934Z,47.2
2023-09-09T16:23:09.326Z,47.6
2023-09-09T16:29:04.539Z,49.6
2023-09-09T16:34:57.250Z,49.8
2023-09-09T16:40:49.483Z,52.6
2023-09-09T16:46:44.430Z,50.1
2023-09-09T16:52:39.162Z,52.3
2023-09-09T16:58:31.651Z,53.4
2023-09-09T17:04:24.539Z,54.9
2023-09-09T17:10:19.260Z,55.3
2023-09-09T17:16:12.497Z,56.3
2023-09-09T17:22:05.097Z,57.3
2023-09-09T17:27:59.555Z,56.4
2023-09-09T17:33:53.930Z,57.1
2023-09-09T17:39:47.204Z,57.8
2023-09-09T17:45:41.075Z,60.2
2023-09-09T17:51:35.029Z,62.7
2023-09-09T17:57:28.979Z,64.8
2023-09-09T18:03:20.925Z,65.1
2023-09-09T18:09:17.101Z,62.6
2023-09-09T18:15:12.001Z,66.1
2023-09-09T18:21:10.890Z,66
2023-09-09T18:27:07.385Z,65.9
2023-09-09T18:33:03.515Z,69.3
2023-09-09T18:38:57.656Z,68.7
2023-09-09T18:44:51.398Z,69
2023-09-09T18:50:46.273Z,69.2
2023-09-09T18:56:38.494Z,70.4
2023-09-09T19:02:33.614Z,68.7
2023-09-09T19:08:26.721Z,70.1
2023-09-09T19:14:25.188Z,71.8
2023-09-09T19:20:23.124Z,71.6
2023-09-09T19:26:20.886Z,69.4
2023-09-09T19:32:15.065Z,70.7
2023-09-09T19:38:08.680Z,72.5
2023-09-09T19:44:03.545Z,72.9
2023-09-09T19:49:56.405Z,72.7
2023-09-09T20:02:32.479Z,72.9
2023-09-09T20:08:30.293Z,75.4
2023-09-09T20:14:33.006Z,74
2023-09-09T20:20:27.397Z,72.3
2023-09-09T20:26:25.066Z,76.7
2023-09-09T20:32:31.240Z,77.4
2023-09-09T20:39:09.705Z,77.9
2023-09-09T20:45:12.621Z,79.2
2023-09-09T20:51:18.029Z,81.2
2023-09-09T20:57:26.863Z,83.1
2023-09-09T21:09:58.647Z,83.3
2023-09-09T21:15:51.441Z,82.7
2023-09-09T21:21:45.025Z,80.9
2023-09-09T21:27:38.001Z,80.1
2023-09-09T21:33:32.359Z,82.4
2023-09-09T21:39:26.086Z,82.8
2023-09-09T21:45:22.772Z,84.8
2023-09-09T21:51:18.495Z,83.2
2023-09-09T21:57:12.066Z,85.4
2023-09-09T22:03:03.778Z,84
2023-09-09T22:08:58.566Z,82.4
2023-09-09T22:14:51.289Z,85.2
2023-09-09T22:20:43.683Z,83.4
2023-09-09T22:26:35.303Z,87.1
2023-09-09T22:32:29.334Z,87.3
2023-09-09T22:38:21.607Z,85.4
2023-09-09T22:44:13.911Z,83.4
2023-09-09T22:50:06.123Z,82.1
2023-09-09T22:56:00.315Z,85.6
2023-09-09T23:01:52.633Z,86.9
2023-09-09T23:07:54.449Z,89.2
2023-09-09T23:13:46.669Z,85.9
2023-09-09T23:19:38.892Z,89.4
2023-09-09T23:25:31.852Z,87
2023-09-09T23:31:27.409Z,86.4
2023-09-09T23:37:20.147Z,85
2023-09-09T23:50:07.562Z,83.6
2023-09-09T23:56:05.550Z,83.6
